sensor_id;sensor_type;location;lat;lon;timestamp;pressure;altitude;pressure_sealevel;temperature;humidity
25947;BME280;13745;51.470;9.894;2023-07-24T00:01:49;98416.00;;;19.34;85.81
25947;BME280;13745;51.470;9.894;2023-07-24T00:04:34;98404.75;;;19.32;85.97
25947;BME280;13745;51.470;9.894;2023-07-24T00:07:19;98391.81;;;19.29;85.96
25947;BME280;13745;51.470;9.894;2023-07-24T00:10:06;98390.13;;;19.28;86.10
25947;BME280;13745;51.470;9.894;2023-07-24T00:12:52;98383.09;;;19.29;85.97
25947;BME280;13745;51.470;9.894;2023-07-24T00:15:38;98382.31;;;19.27;85.92
25947;BME280;13745;51.470;9.894;2023-07-24T00:18:23;98399.03;;;19.26;85.63
25947;BME280;13745;51.470;9.894;2023-07-24T00:21:09;98399.97;;;19.25;85.61
25947;BME280;13745;51.470;9.894;2023-07-24T00:23:54;98398.28;;;19.24;85.97
25947;BME280;13745;51.470;9.894;2023-07-24T00:26:40;98390.41;;;19.24;85.95
25947;BME280;13745;51.470;9.894;2023-07-24T00:29:26;98387.16;;;19.20;85.80
25947;BME280;13745;51.470;9.894;2023-07-24T00:32:11;98386.31;;;19.20;85.78
25947;BME280;13745;51.470;9.894;2023-07-24T00:34:56;98387.22;;;19.19;85.72
25947;BME280;13745;51.470;9.894;2023-07-24T00:37:41;98383.75;;;19.18;85.86
25947;BME280;13745;51.470;9.894;2023-07-24T00:40:26;98377.97;;;19.13;85.99
25947;BME280;13745;51.470;9.894;2023-07-24T00:43:13;98384.91;;;19.14;85.93
25947;BME280;13745;51.470;9.894;2023-07-24T00:45:58;98395.53;;;19.13;86.04
25947;BME280;13745;51.470;9.894;2023-07-24T00:48:43;98390.44;;;19.09;85.88
25947;BME280;13745;51.470;9.894;2023-07-24T00:51:30;98384.56;;;19.06;85.73
25947;BME280;13745;51.470;9.894;2023-07-24T00:54:16;98389.16;;;19.02;85.98
25947;BME280;13745;51.470;9.894;2023-07-24T00:57:03;98381.47;;;18.99;86.09
25947;BME280;13745;51.470;9.894;2023-07-24T00:59:50;98374.44;;;19.00;86.06
25947;BME280;13745;51.470;9.894;2023-07-24T01:02:36;98382.41;;;18.98;86.27
25947;BME280;13745;51.470;9.894;2023-07-24T01:05:22;98374.75;;;18.95;85.95
25947;BME280;13745;51.470;9.894;2023-07-24T01:08:10;98379.13;;;18.95;86.01
25947;BME280;13745;51.470;9.894;2023-07-24T01:10:57;98366.94;;;18.94;86.40
25947;BME280;13745;51.470;9.894;2023-07-24T01:13:51;98366.09;;;18.93;86.25
25947;BME280;13745;51.470;9.894;2023-07-24T01:16:41;98368.09;;;18.90;86.36
25947;BME280;13745;51.470;9.894;2023-07-24T01:19:36;98371.66;;;18.89;86.53
25947;BME280;13745;51.470;9.894;2023-07-24T01:22:25;98369.03;;;18.89;86.34
25947;BME280;13745;51.470;9.894;2023-07-24T01:25:21;98375.22;;;18.88;86.30
25947;BME280;13745;51.470;9.894;2023-07-24T01:28:09;98366.59;;;18.86;86.21
25947;BME280;13745;51.470;9.894;2023-07-24T01:30:55;98376.25;;;18.85;86.45
25947;BME280;13745;51.470;9.894;2023-07-24T01:33:41;98380.66;;;18.85;86.42
25947;BME280;13745;51.470;9.894;2023-07-24T01:36:26;98388.53;;;18.85;86.26
25947;BME280;13745;51.470;9.894;2023-07-24T01:39:12;98378.97;;;18.84;86.36
25947;BME280;13745;51.470;9.894;2023-07-24T01:41:58;98380.75;;;18.83;86.32
25947;BME280;13745;51.470;9.894;2023-07-24T01:44:51;98378.03;;;18.85;86.14
25947;BME280;13745;51.470;9.894;2023-07-24T01:47:36;98386.75;;;18.85;86.37
25947;BME280;13745;51.470;9.894;2023-07-24T01:50:21;98391.94;;;18.87;86.34
25947;BME280;13745;51.470;9.894;2023-07-24T01:53:06;98370.81;;;18.88;86.16
25947;BME280;13745;51.470;9.894;2023-07-24T01:55:51;98362.09;;;18.88;86.37
25947;BME280;13745;51.470;9.894;2023-07-24T01:58:36;98369.03;;;18.89;86.05
25947;BME280;13745;51.470;9.894;2023-07-24T02:01:23;98362.84;;;18.90;86.18
25947;BME280;13745;51.470;9.894;2023-07-24T02:04:08;98360.22;;;18.90;86.20
25947;BME280;13745;51.470;9.894;2023-07-24T02:06:53;98368.94;;;18.90;86.26
25947;BME280;13745;51.470;9.894;2023-07-24T02:09:39;98355.69;;;18.92;86.38
25947;BME280;13745;51.470;9.894;2023-07-24T02:12:24;98360.84;;;18.93;86.10
25947;BME280;13745;51.470;9.894;2023-07-24T02:15:09;98359.81;;;18.96;86.22
25947;BME280;13745;51.470;9.894;2023-07-24T02:17:56;98359.72;;;18.97;85.96
25947;BME280;13745;51.470;9.894;2023-07-24T02:20:48;98349.13;;;18.99;86.10
25947;BME280;13745;51.470;9.894;2023-07-24T02:23:33;98344.59;;;19.01;85.98
25947;BME280;13745;51.470;9.894;2023-07-24T02:26:18;98344.59;;;19.01;86.20
25947;BME280;13745;51.470;9.894;2023-07-24T02:29:03;98340.19;;;19.01;86.11
25947;BME280;13745;51.470;9.894;2023-07-24T02:31:49;98339.25;;;19.02;85.79
25947;BME280;13745;51.470;9.894;2023-07-24T02:34:36;98344.41;;;19.04;86.10
25947;BME280;13745;51.470;9.894;2023-07-24T02:37:21;98350.50;;;19.04;85.99
25947;BME280;13745;51.470;9.894;2023-07-24T02:40:07;98345.25;;;19.04;86.09
25947;BME280;13745;51.470;9.894;2023-07-24T02:42:53;98346.00;;;19.06;85.83
25947;BME280;13745;51.470;9.894;2023-07-24T02:45:38;98346.94;;;19.05;85.75
25947;BME280;13745;51.470;9.894;2023-07-24T02:48:23;98348.63;;;19.06;85.72
25947;BME280;13745;51.470;9.894;2023-07-24T02:51:11;98339.06;;;19.05;85.79
25947;BME280;13745;51.470;9.894;2023-07-24T02:53:56;98338.31;;;19.03;85.91
25947;BME280;13745;51.470;9.894;2023-07-24T02:56:42;98335.69;;;19.03;85.93
25947;BME280;13745;51.470;9.894;2023-07-24T02:59:27;98341.88;;;19.02;85.60
25947;BME280;13745;51.470;9.894;2023-07-24T03:02:13;98334.09;;;19.01;85.64
25947;BME280;13745;51.470;9.894;2023-07-24T03:04:58;98332.50;;;18.98;85.61
25947;BME280;13745;51.470;9.894;2023-07-24T03:07:45;98333.56;;;18.96;85.82
25947;BME280;13745;51.470;9.894;2023-07-24T03:10:30;98327.53;;;18.94;85.60
25947;BME280;13745;51.470;9.894;2023-07-24T03:13:15;98322.50;;;18.91;85.80
25947;BME280;13745;51.470;9.894;2023-07-24T03:16:00;98328.59;;;18.91;86.00
25947;BME280;13745;51.470;9.894;2023-07-24T03:18:46;98331.22;;;18.91;86.02
25947;BME280;13745;51.470;9.894;2023-07-24T03:21:31;98330.38;;;18.91;85.65
25947;BME280;13745;51.470;9.894;2023-07-24T03:24:18;98325.13;;;18.91;85.73
25947;BME280;13745;51.470;9.894;2023-07-24T03:27:03;98325.13;;;18.91;85.80
25947;BME280;13745;51.470;9.894;2023-07-24T03:29:48;98324.28;;;18.90;85.67
25947;BME280;13745;51.470;9.894;2023-07-24T03:32:35;98326.91;;;18.90;85.58
25947;BME280;13745;51.470;9.894;2023-07-24T03:35:21;98325.97;;;18.91;85.86
25947;BME280;13745;51.470;9.894;2023-07-24T03:38:06;98319.97;;;18.89;85.73
25947;BME280;13745;51.470;9.894;2023-07-24T03:40:53;98317.47;;;18.88;86.03
25947;BME280;13745;51.470;9.894;2023-07-24T03:43:39;98317.53;;;18.86;86.04
25947;BME280;13745;51.470;9.894;2023-07-24T03:46:24;98316.91;;;18.83;86.00
25947;BME280;13745;51.470;9.894;2023-07-24T03:49:11;98317.09;;;18.79;85.88
25947;BME280;13745;51.470;9.894;2023-07-24T03:51:56;98304.81;;;18.80;86.21
25947;BME280;13745;51.470;9.894;2023-07-24T03:54:41;98309.28;;;18.78;86.08
25947;BME280;13745;51.470;9.894;2023-07-24T03:57:28;98305.84;;;18.77;85.96
25947;BME280;13745;51.470;9.894;2023-07-24T04:00:13;98295.44;;;18.76;86.28
25947;BME280;13745;51.470;9.894;2023-07-24T04:02:58;98308.88;;;18.71;86.32
25947;BME280;13745;51.470;9.894;2023-07-24T04:05:44;98301.06;;;18.70;86.19
25947;BME280;13745;51.470;9.894;2023-07-24T04:08:29;98300.34;;;18.68;86.28
25947;BME280;13745;51.470;9.894;2023-07-24T04:11:14;98288.25;;;18.65;86.25
25947;BME280;13745;51.470;9.894;2023-07-24T04:14:00;98288.16;;;18.67;86.27
25947;BME280;13745;51.470;9.894;2023-07-24T04:16:46;98285.63;;;18.65;86.14
25947;BME280;13745;51.470;9.894;2023-07-24T04:19:31;98278.78;;;18.63;86.17
25947;BME280;13745;51.470;9.894;2023-07-24T04:22:16;98281.56;;;18.60;86.24
25947;BME280;13745;51.470;9.894;2023-07-24T04:25:02;98285.97;;;18.59;86.07
25947;BME280;13745;51.470;9.894;2023-07-24T04:27:47;98284.19;;;18.60;86.03
25947;BME280;13745;51.470;9.894;2023-07-24T04:30:34;98283.75;;;18.67;85.91
25947;BME280;13745;51.470;9.894;2023-07-24T04:33:20;98273.13;;;18.69;85.93
25947;BME280;13745;51.470;9.894;2023-07-24T04:36:05;98274.63;;;18.73;85.68
25947;BME280;13745;51.470;9.894;2023-07-24T04:38:50;98269.00;;;18.79;85.74
25947;BME280;13745;51.470;9.894;2023-07-24T04:41:35;98255.56;;;18.84;85.56
25947;BME280;13745;51.470;9.894;2023-07-24T04:44:20;98248.34;;;18.87;85.39
25947;BME280;13745;51.470;9.894;2023-07-24T04:47:07;98254.09;;;18.92;85.43
25947;BME280;13745;51.470;9.894;2023-07-24T04:49:52;98261.69;;;18.97;85.18
25947;BME280;13745;51.470;9.894;2023-07-24T04:52:38;98259.59;;;19.02;85.32
25947;BME280;13745;51.470;9.894;2023-07-24T04:55:24;98244.59;;;19.04;85.11
25947;BME280;13745;51.470;9.894;2023-07-24T04:58:09;98247.22;;;19.04;84.87
25947;BME280;13745;51.470;9.894;2023-07-24T05:00:54;98247.13;;;19.05;85.01
25947;BME280;13745;51.470;9.894;2023-07-24T05:03:41;98243.44;;;19.08;85.28
25947;BME280;13745;51.470;9.894;2023-07-24T05:06:26;98233.59;;;19.12;85.15
25947;BME280;13745;51.470;9.894;2023-07-24T05:09:11;98227.28;;;19.14;85.12
25947;BME280;13745;51.470;9.894;2023-07-24T05:11:56;98244.50;;;19.18;85.22
25947;BME280;13745;51.470;9.894;2023-07-24T05:14:41;98239.06;;;19.21;85.23
25947;BME280;13745;51.470;9.894;2023-07-24T05:17:26;98239.69;;;19.25;84.84
25947;BME280;13745;51.470;9.894;2023-07-24T05:20:13;98228.13;;;19.27;84.85
25947;BME280;13745;51.470;9.894;2023-07-24T05:22:58;98221.50;;;19.34;85.00
25947;BME280;13745;51.470;9.894;2023-07-24T05:25:43;98223.94;;;19.38;84.93
25947;BME280;13745;51.470;9.894;2023-07-24T05:28:30;98221.09;;;19.41;84.87
25947;BME280;13745;51.470;9.894;2023-07-24T05:31:16;98226.91;;;19.46;84.68
25947;BME280;13745;51.470;9.894;2023-07-24T05:34:01;98222.97;;;19.51;84.15
25947;BME280;13745;51.470;9.894;2023-07-24T05:36:48;98209.47;;;19.57;84.16
25947;BME280;13745;51.470;9.894;2023-07-24T05:39:34;98224.81;;;19.63;84.02
25947;BME280;13745;51.470;9.894;2023-07-24T05:42:20;98221.66;;;19.71;83.61
25947;BME280;13745;51.470;9.894;2023-07-24T05:45:06;98219.44;;;19.78;83.40
25947;BME280;13745;51.470;9.894;2023-07-24T05:47:52;98220.91;;;19.82;83.63
25947;BME280;13745;51.470;9.894;2023-07-24T05:50:37;98210.91;;;19.87;83.65
25947;BME280;13745;51.470;9.894;2023-07-24T05:53:23;98205.31;;;19.91;83.20
25947;BME280;13745;51.470;9.894;2023-07-24T05:56:09;98200.47;;;19.98;83.37
25947;BME280;13745;51.470;9.894;2023-07-24T05:58:54;98189.63;;;20.03;82.77
25947;BME280;13745;51.470;9.894;2023-07-24T06:01:39;98196.47;;;20.05;82.73
25947;BME280;13745;51.470;9.894;2023-07-24T06:04:24;98201.38;;;20.10;83.16
25947;BME280;13745;51.470;9.894;2023-07-24T06:07:09;98187.06;;;20.14;82.80
25947;BME280;13745;51.470;9.894;2023-07-24T06:09:55;98199.78;;;20.20;82.81
25947;BME280;13745;51.470;9.894;2023-07-24T06:12:41;98191.53;;;20.25;82.54
25947;BME280;13745;51.470;9.894;2023-07-24T06:15:26;98206.28;;;20.27;82.35
25947;BME280;13745;51.470;9.894;2023-07-24T06:18:11;98207.75;;;20.31;82.57
25947;BME280;13745;51.470;9.894;2023-07-24T06:20:56;98215.31;;;20.36;82.13
25947;BME280;13745;51.470;9.894;2023-07-24T06:23:41;98207.81;;;20.42;81.96
25947;BME280;13745;51.470;9.894;2023-07-24T06:26:28;98210.88;;;20.49;82.32
25947;BME280;13745;51.470;9.894;2023-07-24T06:29:13;98208.75;;;20.54;81.80
25947;BME280;13745;51.470;9.894;2023-07-24T06:31:59;98199.66;;;20.58;81.39
25947;BME280;13745;51.470;9.894;2023-07-24T06:34:44;98193.34;;;20.61;81.36
25947;BME280;13745;51.470;9.894;2023-07-24T06:37:29;98202.81;;;20.63;81.51
25947;BME280;13745;51.470;9.894;2023-07-24T06:40:15;98199.34;;;20.63;81.23
25947;BME280;13745;51.470;9.894;2023-07-24T06:43:01;98201.88;;;20.75;80.45
25947;BME280;13745;51.470;9.894;2023-07-24T06:45:47;98190.00;;;20.94;80.15
25947;BME280;13745;51.470;9.894;2023-07-24T06:48:32;98183.34;;;21.12;79.57
25947;BME280;13745;51.470;9.894;2023-07-24T06:51:17;98178.34;;;21.20;79.43
25947;BME280;13745;51.470;9.894;2023-07-24T06:54:02;98176.66;;;21.19;79.16
25947;BME280;13745;51.470;9.894;2023-07-24T06:56:47;98156.03;;;21.24;79.39
25947;BME280;13745;51.470;9.894;2023-07-24T06:59:34;98150.34;;;21.30;79.29
25947;BME280;13745;51.470;9.894;2023-07-24T07:02:19;98159.09;;;21.42;79.27
25947;BME280;13745;51.470;9.894;2023-07-24T07:05:04;98148.44;;;21.55;78.50
25947;BME280;13745;51.470;9.894;2023-07-24T07:07:49;98153.13;;;21.63;78.74
25947;BME280;13745;51.470;9.894;2023-07-24T07:10:35;98145.78;;;21.77;77.96
25947;BME280;13745;51.470;9.894;2023-07-24T07:13:20;98135.19;;;22.00;77.40
25947;BME280;13745;51.470;9.894;2023-07-24T07:16:06;98127.53;;;22.19;77.39
25947;BME280;13745;51.470;9.894;2023-07-24T07:18:51;98130.47;;;22.37;nan
25947;BME280;13745;51.470;9.894;2023-07-24T07:21:36;98120.19;;;22.55;76.84
25947;BME280;13745;51.470;9.894;2023-07-24T07:24:22;98125.16;;;22.69;76.43
25947;BME280;13745;51.470;9.894;2023-07-24T07:27:06;98116.19;;;22.81;75.71
25947;BME280;13745;51.470;9.894;2023-07-24T07:29:51;98120.59;;;22.92;75.40
25947;BME280;13745;51.470;9.894;2023-07-24T07:32:38;98113.59;;;23.02;74.62
25947;BME280;13745;51.470;9.894;2023-07-24T07:35:23;98125.63;;;23.16;73.93
25947;BME280;13745;51.470;9.894;2023-07-24T07:38:08;98110.03;;;23.34;73.23
25947;BME280;13745;51.470;9.894;2023-07-24T07:40:53;98091.81;;;23.50;72.41
25947;BME280;13745;51.470;9.894;2023-07-24T07:43:38;98100.25;;;23.65;71.50
25947;BME280;13745;51.470;9.894;2023-07-24T07:46:23;98082.34;;;23.78;70.69
25947;BME280;13745;51.470;9.894;2023-07-24T07:49:11;98094.38;;;23.92;70.21
25947;BME280;13745;51.470;9.894;2023-07-24T07:51:56;98097.59;;;24.05;69.87
25947;BME280;13745;51.470;9.894;2023-07-24T07:54:41;98085.31;;;24.14;68.71
25947;BME280;13745;51.470;9.894;2023-07-24T07:57:26;98085.22;;;24.25;68.34
25947;BME280;13745;51.470;9.894;2023-07-24T08:00:12;98097.38;;;24.37;67.60
25947;BME280;13745;51.470;9.894;2023-07-24T08:02:57;98091.25;;;24.36;67.13
25947;BME280;13745;51.470;9.894;2023-07-24T08:05:43;98092.06;;;24.37;67.16
25947;BME280;13745;51.470;9.894;2023-07-24T08:08:29;98101.84;;;24.46;66.91
25947;BME280;13745;51.470;9.894;2023-07-24T08:11:14;98111.03;;;24.61;66.27
25947;BME280;13745;51.470;9.894;2023-07-24T08:13:59;98100.84;;;24.76;66.12
25947;BME280;13745;51.470;9.894;2023-07-24T08:16:44;98106.41;;;24.92;65.50
25947;BME280;13745;51.470;9.894;2023-07-24T08:19:30;98112.81;;;25.09;65.15
25947;BME280;13745;51.470;9.894;2023-07-24T08:22:16;98106.50;;;25.20;64.96
25947;BME280;13745;51.470;9.894;2023-07-24T08:25:04;98118.63;;;25.32;64.42
25947;BME280;13745;51.470;9.894;2023-07-24T08:27:49;98127.13;;;25.36;64.18
25947;BME280;13745;51.470;9.894;2023-07-24T08:30:34;98104.06;;;25.36;63.74
25947;BME280;13745;51.470;9.894;2023-07-24T08:33:19;98111.22;;;25.36;63.84
25947;BME280;13745;51.470;9.894;2023-07-24T08:36:06;98127.41;;;25.42;63.45
25947;BME280;13745;51.470;9.894;2023-07-24T08:38:52;98117.72;;;25.51;63.05
25947;BME280;13745;51.470;9.894;2023-07-24T08:41:38;98116.53;;;25.63;63.09
25947;BME280;13745;51.470;9.894;2023-07-24T08:44:25;98107.72;;;25.63;62.57
25947;BME280;13745;51.470;9.894;2023-07-24T08:47:15;98121.69;;;25.65;63.17
25947;BME280;13745;51.470;9.894;2023-07-24T08:50:00;98126.03;;;25.75;62.77
25947;BME280;13745;51.470;9.894;2023-07-24T08:52:45;98135.47;;;25.88;62.42
25947;BME280;13745;51.470;9.894;2023-07-24T08:55:32;98127.75;;;25.94;62.20
25947;BME280;13745;51.470;9.894;2023-07-24T08:58:17;98142.41;;;25.98;61.59
25947;BME280;13745;51.470;9.894;2023-07-24T09:01:03;98149.13;;;25.93;61.52
25947;BME280;13745;51.470;9.894;2023-07-24T09:03:48;98136.44;;;25.87;61.48
25947;BME280;13745;51.470;9.894;2023-07-24T09:06:33;98121.34;;;25.87;61.44
25947;BME280;13745;51.470;9.894;2023-07-24T09:09:19;98129.63;;;25.84;61.20
25947;BME280;13745;51.470;9.894;2023-07-24T09:12:06;98120.72;;;25.75;61.66
25947;BME280;13745;51.470;9.894;2023-07-24T09:15:01;98123.00;;;25.88;61.38
25947;BME280;13745;51.470;9.894;2023-07-24T09:17:48;98112.38;;;26.16;61.27
25947;BME280;13745;51.470;9.894;2023-07-24T09:20:39;98112.97;;;26.27;60.50
25947;BME280;13745;51.470;9.894;2023-07-24T09:23:28;98115.41;;;26.21;60.48
25947;BME280;13745;51.470;9.894;2023-07-24T09:26:13;98100.38;;;26.12;60.66
25947;BME280;13745;51.470;9.894;2023-07-24T09:28:59;98102.28;;;26.19;60.57
25947;BME280;13745;51.470;9.894;2023-07-24T09:31:45;98102.19;;;26.29;60.27
25947;BME280;13745;51.470;9.894;2023-07-24T09:34:31;98081.78;;;26.47;60.08
25947;BME280;13745;51.470;9.894;2023-07-24T09:37:26;98088.88;;;26.56;59.38
25947;BME280;13745;51.470;9.894;2023-07-24T09:40:14;98081.25;;;26.62;59.28
25947;BME280;13745;51.470;9.894;2023-07-24T09:42:59;98089.47;;;26.68;59.16
25947;BME280;13745;51.470;9.894;2023-07-24T09:45:47;98076.06;;;26.78;59.16
25947;BME280;13745;51.470;9.894;2023-07-24T09:48:33;98088.19;;;26.98;59.08
25947;BME280;13745;51.470;9.894;2023-07-24T09:51:19;98075.66;;;27.08;58.52
25947;BME280;13745;51.470;9.894;2023-07-24T09:54:06;98063.69;;;27.12;57.93
25947;BME280;13745;51.470;9.894;2023-07-24T09:56:55;98079.06;;;27.27;57.80
25947;BME280;13745;51.470;9.894;2023-07-24T09:59:41;98071.34;;;27.41;57.97
25947;BME280;13745;51.470;9.894;2023-07-24T10:02:29;98078.31;;;27.42;57.71
25947;BME280;13745;51.470;9.894;2023-07-24T10:05:15;98064.09;;;27.26;58.00
25947;BME280;13745;51.470;9.894;2023-07-24T10:08:00;98060.69;;;27.07;58.37
25947;BME280;13745;51.470;9.894;2023-07-24T10:10:46;98066.53;;;26.93;58.12
25947;BME280;13745;51.470;9.894;2023-07-24T10:13:35;98057.63;;;26.76;58.32
25947;BME280;13745;51.470;9.894;2023-07-24T10:16:21;98052.75;;;26.72;58.69
25947;BME280;13745;51.470;9.894;2023-07-24T10:19:14;98060.53;;;26.65;58.58
25947;BME280;13745;51.470;9.894;2023-07-24T10:21:59;98043.53;;;26.84;58.54
25947;BME280;13745;51.470;9.894;2023-07-24T10:24:46;98036.50;;;27.01;58.77
25947;BME280;13745;51.470;9.894;2023-07-24T10:27:35;98035.50;;;27.02;58.50
25947;BME280;13745;51.470;9.894;2023-07-24T10:30:28;98026.09;;;27.07;58.59
25947;BME280;13745;51.470;9.894;2023-07-24T10:33:18;98030.34;;;27.26;58.10
25947;BME280;13745;51.470;9.894;2023-07-24T10:36:06;98032.75;;;27.46;57.60
25947;BME280;13745;51.470;9.894;2023-07-24T10:38:55;98024.97;;;27.60;57.56
25947;BME280;13745;51.470;9.894;2023-07-24T10:41:40;98026.97;;;27.58;57.92
25947;BME280;13745;51.470;9.894;2023-07-24T10:44:30;98027.94;;;27.49;57.68
25947;BME280;13745;51.470;9.894;2023-07-24T10:47:16;98026.72;;;27.35;57.94
25947;BME280;13745;51.470;9.894;2023-07-24T10:50:02;98035.91;;;27.07;57.85
25947;BME280;13745;51.470;9.894;2023-07-24T10:52:48;98026.69;;;26.75;58.11
25947;BME280;13745;51.470;9.894;2023-07-24T10:55:34;98035.31;;;26.51;58.36
25947;BME280;13745;51.470;9.894;2023-07-24T10:58:19;98037.75;;;26.45;58.46
25947;BME280;13745;51.470;9.894;2023-07-24T11:01:05;98029.69;;;26.54;58.58
25947;BME280;13745;51.470;9.894;2023-07-24T11:03:50;98023.66;;;26.70;58.31
25947;BME280;13745;51.470;9.894;2023-07-24T11:06:36;98025.19;;;26.99;57.74
25947;BME280;13745;51.470;9.894;2023-07-24T11:09:22;98032.53;;;27.31;56.97
25947;BME280;13745;51.470;9.894;2023-07-24T11:12:18;98034.63;;;27.19;57.26
25947;BME280;13745;51.470;9.894;2023-07-24T11:15:04;98033.66;;;27.02;57.30
25947;BME280;13745;51.470;9.894;2023-07-24T11:17:49;98039.88;;;26.85;57.68
25947;BME280;13745;51.470;9.894;2023-07-24T11:20:37;98024.81;;;26.68;57.54
25947;BME280;13745;51.470;9.894;2023-07-24T11:23:23;98023.91;;;26.59;57.59
25947;BME280;13745;51.470;9.894;2023-07-24T11:26:10;98020.59;;;26.57;57.36
25947;BME280;13745;51.470;9.894;2023-07-24T11:28:55;98023.09;;;26.58;57.55
25947;BME280;13745;51.470;9.894;2023-07-24T11:31:40;98016.50;;;26.71;57.23
25947;BME280;13745;51.470;9.894;2023-07-24T11:34:25;98011.19;;;26.97;57.03
25947;BME280;13745;51.470;9.894;2023-07-24T11:37:11;98021.44;;;27.09;56.29
25947;BME280;13745;51.470;9.894;2023-07-24T11:39:57;98011.50;;;27.20;56.15
25947;BME280;13745;51.470;9.894;2023-07-24T11:42:44;97995.78;;;27.34;55.62
25947;BME280;13745;51.470;9.894;2023-07-24T11:45:30;97999.97;;;27.53;55.64
25947;BME280;13745;51.470;9.894;2023-07-24T11:48:15;97996.34;;;27.62;55.40
25947;BME280;13745;51.470;9.894;2023-07-24T11:51:00;97993.03;;;27.60;55.15
25947;BME280;13745;51.470;9.894;2023-07-24T11:53:45;97998.00;;;27.63;55.33
25947;BME280;13745;51.470;9.894;2023-07-24T11:56:30;97998.56;;;27.67;54.72
25947;BME280;13745;51.470;9.894;2023-07-24T11:59:16;97983.56;;;27.66;54.66
25947;BME280;13745;51.470;9.894;2023-07-24T12:02:02;97980.09;;;27.74;55.02
25947;BME280;13745;51.470;9.894;2023-07-24T12:04:53;97964.81;;;27.84;54.20
25947;BME280;13745;51.470;9.894;2023-07-24T12:07:39;97967.13;;;27.95;53.72
25947;BME280;13745;51.470;9.894;2023-07-24T12:10:26;97958.50;;;28.01;53.51
25947;BME280;13745;51.470;9.894;2023-07-24T12:13:12;97948.84;;;28.08;53.24
25947;BME280;13745;51.470;9.894;2023-07-24T12:15:58;97944.16;;;28.10;53.02
25947;BME280;13745;51.470;9.894;2023-07-24T12:18:43;97948.84;;;28.24;53.60
25947;BME280;13745;51.470;9.894;2023-07-24T12:21:29;97954.34;;;28.39;53.10
25947;BME280;13745;51.470;9.894;2023-07-24T12:24:14;97950.16;;;28.37;53.41
25947;BME280;13745;51.470;9.894;2023-07-24T12:26:59;97948.84;;;28.24;52.85
25947;BME280;13745;51.470;9.894;2023-07-24T12:29:44;97946.16;;;28.16;52.62
25947;BME280;13745;51.470;9.894;2023-07-24T12:32:31;97937.00;;;28.11;53.14
25947;BME280;13745;51.470;9.894;2023-07-24T12:35:18;97935.00;;;27.96;52.50
25947;BME280;13745;51.470;9.894;2023-07-24T12:38:04;97934.00;;;27.89;52.63
25947;BME280;13745;51.470;9.894;2023-07-24T12:40:49;97923.00;;;27.84;53.02
25947;BME280;13745;51.470;9.894;2023-07-24T12:43:34;97915.84;;;27.77;52.44
25947;BME280;13745;51.470;9.894;2023-07-24T12:46:19;97918.03;;;27.73;52.86
25947;BME280;13745;51.470;9.894;2023-07-24T12:49:06;97906.53;;;27.89;53.20
25947;BME280;13745;51.470;9.894;2023-07-24T12:51:51;97900.34;;;27.96;52.64
25947;BME280;13745;51.470;9.894;2023-07-24T12:54:36;97892.53;;;28.03;52.63
25947;BME280;13745;51.470;9.894;2023-07-24T12:57:21;97889.56;;;27.98;52.20
25947;BME280;13745;51.470;9.894;2023-07-24T13:00:07;97887.38;;;28.02;52.16
25947;BME280;13745;51.470;9.894;2023-07-24T13:02:52;97887.19;;;28.11;51.98
25947;BME280;13745;51.470;9.894;2023-07-24T13:05:39;97882.38;;;28.23;51.77
25947;BME280;13745;51.470;9.894;2023-07-24T13:08:24;97889.84;;;28.27;51.00
25947;BME280;13745;51.470;9.894;2023-07-24T13:11:09;97895.53;;;28.33;51.25
25947;BME280;13745;51.470;9.894;2023-07-24T13:13:54;97896.66;;;28.38;51.40
25947;BME280;13745;51.470;9.894;2023-07-24T13:16:40;97897.84;;;28.27;50.78
25947;BME280;13745;51.470;9.894;2023-07-24T13:19:25;97895.38;;;28.10;51.08
25947;BME280;13745;51.470;9.894;2023-07-24T13:22:12;97888.38;;;27.92;51.49
25947;BME280;13745;51.470;9.894;2023-07-24T13:24:57;97879.03;;;27.72;51.49
25947;BME280;13745;51.470;9.894;2023-07-24T13:27:43;97872.19;;;27.53;51.84
25947;BME280;13745;51.470;9.894;2023-07-24T13:30:28;97869.81;;;27.34;51.76
25947;BME280;13745;51.470;9.894;2023-07-24T13:33:13;97869.47;;;27.21;51.98
25947;BME280;13745;51.470;9.894;2023-07-24T13:35:58;97857.31;;;27.10;52.55
25947;BME280;13745;51.470;9.894;2023-07-24T13:38:44;97845.31;;;27.06;52.43
25947;BME280;13745;51.470;9.894;2023-07-24T13:41:29;97850.47;;;27.07;52.55
25947;BME280;13745;51.470;9.894;2023-07-24T13:44:15;97831.53;;;27.10;52.39
25947;BME280;13745;51.470;9.894;2023-07-24T13:47:00;97831.19;;;27.22;52.57
25947;BME280;13745;51.470;9.894;2023-07-24T13:49:45;97812.28;;;27.33;52.57
25947;BME280;13745;51.470;9.894;2023-07-24T13:52:30;97820.06;;;27.26;52.46
25947;BME280;13745;51.470;9.894;2023-07-24T13:55:16;97811.72;;;27.13;52.63
25947;BME280;13745;51.470;9.894;2023-07-24T13:58:02;97820.06;;;27.10;52.01
25947;BME280;13745;51.470;9.894;2023-07-24T14:00:47;97809.75;;;27.15;51.87
25947;BME280;13745;51.470;9.894;2023-07-24T14:03:32;97801.59;;;27.17;52.35
25947;BME280;13745;51.470;9.894;2023-07-24T14:06:17;97788.63;;;27.13;52.15
25947;BME280;13745;51.470;9.894;2023-07-24T14:09:02;97791.94;;;27.07;52.55
25947;BME280;13745;51.470;9.894;2023-07-24T14:11:49;97790.06;;;27.00;52.72
25947;BME280;13745;51.470;9.894;2023-07-24T14:14:34;97784.09;;;26.98;52.75
25947;BME280;13745;51.470;9.894;2023-07-24T14:17:19;97793.84;;;26.89;52.74
25947;BME280;13745;51.470;9.894;2023-07-24T14:20:05;97788.50;;;26.81;53.26
25947;BME280;13745;51.470;9.894;2023-07-24T14:22:51;97783.88;;;26.75;53.80
25947;BME280;13745;51.470;9.894;2023-07-24T14:25:36;97784.50;;;26.69;54.08
25947;BME280;13745;51.470;9.894;2023-07-24T14:28:22;97758.56;;;26.63;54.40
25947;BME280;13745;51.470;9.894;2023-07-24T14:31:07;97754.41;;;26.60;54.08
25947;BME280;13745;51.470;9.894;2023-07-24T14:33:52;97739.75;;;26.56;54.58
25947;BME280;13745;51.470;9.894;2023-07-24T14:36:37;97733.09;;;26.52;54.85
25947;BME280;13745;51.470;9.894;2023-07-24T14:39:23;97757.00;;;26.44;55.20